Time;durP1;ratioP1;P1;durP2;ratioP2;P2;SDS_P1;SDS_P2;PMS_P1;PMS_P2;Temp;Humidity;BMP_temperature;BMP_pressure;BME280_temperature;BME280_humidity;BME280_pressure;Samples;Min_cycle;Max_cycle;Signal;HPM_P1;HPM_P2
2022/12/08 00:00:54;;;;;;;50.53;32.15;;;5.00;99.90;;;;;;5034396;28;20033;-84
2022/12/08 00:03:20;;;;;;;47.22;31.77;;;4.90;99.90;;;;;;5033964;28;20555;-84
2022/12/08 00:11:19;;;;;;;47.42;30.05;;;4.90;99.90;;;;;;5034166;28;20043;-84
2022/12/08 00:13:45;;;;;;;46.15;29.58;;;4.80;99.90;;;;;;5070661;28;20024;-84
2022/12/08 00:16:11;;;;;;;45.15;29.67;;;4.90;99.90;;;;;;5073743;28;20033;-84
2022/12/08 00:18:37;;;;;;;45.25;30.30;;;4.90;99.90;;;;;;5073466;28;20028;-85
2022/12/08 00:21:03;;;;;;;48.95;30.25;;;4.90;99.90;;;;;;5072474;28;20017;-85
2022/12/08 00:23:28;;;;;;;48.20;29.85;;;4.80;99.90;;;;;;5073811;28;20400;-84
2022/12/08 00:25:54;;;;;;;47.90;30.85;;;4.80;99.90;;;;;;5073737;28;20090;-85
2022/12/08 00:28:20;;;;;;;55.47;32.25;;;4.90;99.90;;;;;;5073553;28;20035;-84
2022/12/08 00:30:45;;;;;;;55.35;33.90;;;4.80;99.90;;;;;;5073694;28;20032;-84
2022/12/08 00:33:11;;;;;;;60.95;34.20;;;4.90;99.90;;;;;;5073034;28;20407;-84
2022/12/08 00:35:37;;;;;;;57.92;34.38;;;4.90;99.90;;;;;;5073578;28;20017;-84
2022/12/08 00:38:03;;;;;;;51.42;31.65;;;4.90;99.90;;;;;;5073569;28;20602;-84
2022/12/08 00:40:28;;;;;;;48.90;30.95;;;4.80;99.90;;;;;;5072412;28;20025;-84
2022/12/08 00:42:54;;;;;;;55.20;35.15;;;4.90;99.90;;;;;;5073191;28;20028;-84
2022/12/08 00:45:20;;;;;;;52.33;32.55;;;5.00;99.90;;;;;;5073190;28;20504;-83
2022/12/08 00:47:46;;;;;;;46.92;28.90;;;4.70;99.90;;;;;;5072975;28;20059;-84
2022/12/08 00:50:11;;;;;;;46.17;29.88;;;4.70;99.90;;;;;;5072926;28;20086;-84
2022/12/08 00:52:37;;;;;;;47.72;31.73;;;4.80;99.90;;;;;;5072315;28;20057;-84
2022/12/08 00:55:03;;;;;;;48.38;30.70;;;4.70;99.90;;;;;;5073289;28;20036;-83
2022/12/08 00:57:29;;;;;;;48.17;30.25;;;4.80;99.90;;;;;;5071826;28;20030;-83
2022/12/08 00:59:56;;;;;;;48.53;30.88;;;4.80;99.90;;;;;;5073216;28;20545;-84
2022/12/08 01:02:21;;;;;;;51.70;32.13;;;4.80;99.90;;;;;;5072359;28;20028;-84
2022/12/08 01:04:47;;;;;;;49.92;31.25;;;4.80;99.90;;;;;;5071695;28;20020;-84
2022/12/08 01:07:13;;;;;;;52.42;31.65;;;4.80;99.90;;;;;;5073059;28;20365;-84
2022/12/08 01:09:38;;;;;;;50.72;31.75;;;4.70;99.90;;;;;;5071598;28;20037;-84
2022/12/08 01:12:05;;;;;;;48.35;31.98;;;4.80;99.90;;;;;;5072887;28;20047;-84
2022/12/08 01:14:30;;;;;;;48.40;31.52;;;4.70;99.90;;;;;;5071462;28;20024;-84
2022/12/08 01:16:56;;;;;;;47.63;30.92;;;4.80;99.90;;;;;;5072555;28;20074;-84
2022/12/08 01:19:22;;;;;;;51.60;31.90;;;4.90;99.90;;;;;;5072665;28;20040;-84
2022/12/08 01:21:48;;;;;;;49.55;31.85;;;4.70;99.90;;;;;;5071441;28;20063;-84
2022/12/08 01:24:19;;;;;;;47.05;30.55;;;5.30;99.90;;;;;;5072639;28;20025;-84
2022/12/08 01:26:45;;;;;;;46.72;30.63;;;4.80;99.90;;;;;;5072783;28;20020;-84
2022/12/08 01:29:11;;;;;;;48.13;30.15;;;4.80;99.90;;;;;;5071051;28;20028;-85
2022/12/08 01:31:38;;;;;;;46.85;29.85;;;4.80;99.90;;;;;;5071512;28;20069;-85
2022/12/08 01:34:03;;;;;;;46.63;30.75;;;4.80;99.90;;;;;;5059039;28;20078;-85
2022/12/08 01:36:31;;;;;;;45.85;29.52;;;4.80;99.90;;;;;;5051220;28;20389;-85
2022/12/08 01:38:59;;;;;;;44.97;28.98;;;4.80;99.90;;;;;;5052240;28;20496;-84
2022/12/08 01:41:27;;;;;;;44.72;29.08;;;4.80;99.90;;;;;;5052945;28;20043;-84
2022/12/08 01:44:07;;;;;;;44.05;29.42;;;4.70;99.90;;;;;;5051612;28;20045;-84
2022/12/08 01:46:35;;;;;;;46.88;30.30;;;4.70;99.90;;;;;;5052414;28;20033;-85
2022/12/08 01:49:12;;;;;;;45.58;29.27;;;4.70;99.90;;;;;;5051295;28;20048;-84
2022/12/08 01:51:52;;;;;;;48.67;30.40;;;4.70;99.90;;;;;;5052256;28;20024;-85
2022/12/08 01:54:19;;;;;;;52.38;31.23;;;4.70;99.90;;;;;;5052201;28;20059;-85
2022/12/08 01:56:55;;;;;;;46.92;30.30;;;4.70;99.90;;;;;;5050940;28;20021;-85
2022/12/08 01:59:22;;;;;;;49.95;30.80;;;4.70;99.90;;;;;;5050935;28;20036;-85
2022/12/08 02:01:48;;;;;;;47.33;30.50;;;4.70;99.90;;;;;;5052720;28;20029;-84
2022/12/08 02:04:13;;;;;;;47.85;30.83;;;4.70;99.90;;;;;;5053459;28;20029;-85
2022/12/08 02:06:42;;;;;;;44.17;29.65;;;4.70;99.90;;;;;;5056504;28;20033;-85
2022/12/08 02:09:08;;;;;;;49.97;30.80;;;4.60;99.90;;;;;;5056595;28;20032;-85
2022/12/08 02:11:34;;;;;;;46.00;29.50;;;4.80;99.90;;;;;;5054789;28;20021;-84
2022/12/08 02:14:05;;;;;;;46.95;30.02;;;4.70;99.90;;;;;;5054581;28;20025;-85
2022/12/08 02:16:45;;;;;;;47.53;30.73;;;4.50;99.90;;;;;;5056261;28;20021;-84
2022/12/08 02:19:22;;;;;;;48.83;31.95;;;4.50;99.90;;;;;;5056305;28;20056;-85
2022/12/08 02:22:00;;;;;;;50.90;31.75;;;4.40;99.90;;;;;;5056169;28;20103;-85
2022/12/08 02:24:49;;;;;;;48.05;32.15;;;4.40;99.90;;;;;;5055886;28;20028;-84
2022/12/08 02:27:24;;;;;;;52.83;34.20;;;4.50;99.90;;;;;;5054298;28;20031;-84
2022/12/08 02:30:27;;;;;;;54.67;33.53;;;4.50;99.90;;;;;;5055974;28;20032;-84
2022/12/08 02:33:31;;;;;;;57.42;33.17;;;4.40;99.90;;;;;;5033457;28;20038;-84
2022/12/08 02:36:21;;;;;;;50.10;33.55;;;4.40;99.90;;;;;;5026798;28;20111;-86
2022/12/08 02:39:07;;;;;;;54.45;31.88;;;4.40;99.90;;;;;;5033428;28;20132;-85
2022/12/08 02:41:36;;;;;;;51.55;31.25;;;4.20;99.90;;;;;;5033828;28;20072;-85
2022/12/08 02:44:19;;;;;;;45.03;29.75;;;4.10;99.90;;;;;;5033046;28;20067;-84
2022/12/08 02:46:53;;;;;;;45.45;30.27;;;4.20;99.90;;;;;;5033443;28;20045;-84
2022/12/08 02:49:18;;;;;;;47.45;30.42;;;4.20;99.90;;;;;;5033770;28;20160;-84
2022/12/08 02:51:44;;;;;;;47.42;29.67;;;4.20;99.90;;;;;;5033854;28;20120;-85
2022/12/08 02:54:10;;;;;;;45.25;30.23;;;4.20;99.90;;;;;;5033612;28;20030;-85
2022/12/08 02:56:48;;;;;;;50.50;31.42;;;4.40;99.90;;;;;;5032998;28;20034;-85
2022/12/08 02:59:23;;;;;;;47.65;30.48;;;4.20;99.90;;;;;;5033106;28;20025;-84
2022/12/08 03:01:49;;;;;;;52.47;30.70;;;4.30;99.90;;;;;;5033506;28;20115;-85
2022/12/08 03:04:30;;;;;;;44.70;29.50;;;4.20;99.90;;;;;;5016692;28;20089;-84
2022/12/08 03:07:22;;;;;;;47.50;29.42;;;4.40;99.90;;;;;;5032843;28;20025;-84
2022/12/08 03:09:51;;;;;;;50.65;30.30;;;4.30;99.90;;;;;;5041977;28;20494;-84
2022/12/08 03:12:48;;;;;;;48.55;29.50;;;4.20;99.90;;;;;;5054530;28;20163;-84
2022/12/08 03:15:18;;;;;;;46.67;28.65;;;4.30;99.90;;;;;;5051832;28;20093;-85
2022/12/08 03:17:50;;;;;;;47.60;29.40;;;4.30;99.90;;;;;;5054568;28;20025;-84
2022/12/08 03:20:20;;;;;;;47.75;29.50;;;4.30;99.90;;;;;;5055096;28;20032;-85
2022/12/08 03:22:48;;;;;;;49.13;29.20;;;4.30;99.90;;;;;;5054775;28;20158;-84
2022/12/08 03:25:15;;;;;;;46.75;29.13;;;4.20;99.90;;;;;;5054718;28;20025;-85
2022/12/08 03:27:41;;;;;;;45.30;29.13;;;4.20;99.90;;;;;;5054740;28;20492;-84
2022/12/08 03:30:08;;;;;;;48.20;30.60;;;4.20;99.90;;;;;;5054906;28;20033;-84
2022/12/08 03:32:39;;;;;;;48.28;31.30;;;4.30;99.90;;;;;;5054777;28;20025;-84
2022/12/08 03:35:09;;;;;;;50.08;29.85;;;4.30;99.90;;;;;;5054605;28;20040;-84
2022/12/08 03:37:36;;;;;;;46.95;30.05;;;4.30;99.90;;;;;;5054476;28;20029;-84
2022/12/08 03:40:04;;;;;;;47.25;30.13;;;4.40;99.90;;;;;;5054434;28;20029;-84
2022/12/08 03:42:29;;;;;;;48.30;30.33;;;4.40;99.90;;;;;;5054672;28;20025;-85
2022/12/08 03:44:55;;;;;;;46.72;29.77;;;4.30;99.90;;;;;;5054069;28;20467;-84
2022/12/08 03:47:21;;;;;;;49.15;29.92;;;4.40;99.90;;;;;;5054574;28;20029;-85
2022/12/08 03:49:46;;;;;;;46.60;30.45;;;4.40;99.90;;;;;;5054687;28;20389;-84
2022/12/08 03:52:12;;;;;;;47.63;30.45;;;4.40;99.90;;;;;;5054341;28;20043;-85
2022/12/08 03:54:38;;;;;;;45.80;28.10;;;4.40;99.90;;;;;;5052593;28;20389;-84
2022/12/08 03:57:03;;;;;;;44.15;29.10;;;4.40;99.90;;;;;;5054490;28;20025;-85
2022/12/08 03:59:29;;;;;;;44.97;28.02;;;4.40;99.90;;;;;;5054506;28;20506;-84
2022/12/08 04:01:54;;;;;;;46.88;28.80;;;4.40;99.90;;;;;;5054197;28;20025;-85
2022/12/08 04:04:20;;;;;;;48.53;28.58;;;4.40;99.90;;;;;;5054144;28;20060;-84
2022/12/08 04:06:46;;;;;;;44.63;28.65;;;4.30;99.90;;;;;;5054039;28;20031;-84
2022/12/08 04:09:12;;;;;;;45.25;27.90;;;4.40;99.90;;;;;;5053810;28;20067;-84
2022/12/08 04:11:37;;;;;;;45.33;27.30;;;4.40;99.90;;;;;;5054731;28;20025;-84
2022/12/08 04:14:03;;;;;;;44.15;27.65;;;4.30;99.90;;;;;;5073866;28;20495;-85
2022/12/08 04:16:29;;;;;;;46.20;27.80;;;4.30;99.90;;;;;;5073747;28;20028;-84
2022/12/08 04:18:54;;;;;;;42.08;27.42;;;4.30;99.90;;;;;;5072665;28;20028;-84
2022/12/08 04:21:20;;;;;;;44.03;27.30;;;4.30;99.90;;;;;;5072619;28;20051;-84
2022/12/08 04:23:46;;;;;;;44.20;26.58;;;4.80;99.90;;;;;;5073317;28;20052;-85
2022/12/08 04:26:12;;;;;;;44.40;27.20;;;4.30;99.90;;;;;;5072300;28;20059;-84
2022/12/08 04:28:38;;;;;;;45.67;26.52;;;4.20;99.90;;;;;;5070846;28;20028;-84
2022/12/08 04:31:04;;;;;;;42.85;27.63;;;4.20;99.90;;;;;;5072462;28;20037;-84
2022/12/08 04:33:30;;;;;;;42.80;28.13;;;4.20;99.90;;;;;;5064296;28;20025;-84
2022/12/08 04:35:56;;;;;;;43.75;27.73;;;4.20;99.90;;;;;;5053441;28;20024;-85
2022/12/08 04:38:22;;;;;;;46.03;27.98;;;4.20;99.90;;;;;;5053284;28;20488;-85
2022/12/08 04:40:47;;;;;;;44.78;27.60;;;4.10;99.90;;;;;;5053500;28;20053;-84
2022/12/08 04:43:13;;;;;;;45.10;27.35;;;4.40;99.90;;;;;;5052995;28;20113;-85
2022/12/08 04:45:40;;;;;;;48.78;27.27;;;4.20;99.90;;;;;;5053623;28;20037;-84
2022/12/08 04:48:06;;;;;;;46.15;26.65;;;4.20;99.90;;;;;;5052897;28;20021;-85
2022/12/08 04:50:32;;;;;;;43.42;27.17;;;4.10;99.90;;;;;;5053122;28;20029;-86
2022/12/08 04:52:57;;;;;;;41.97;26.90;;;4.20;99.90;;;;;;5051170;28;20025;-85
2022/12/08 04:55:23;;;;;;;44.50;27.60;;;4.10;99.90;;;;;;5053506;28;20057;-85
2022/12/08 04:57:49;;;;;;;45.67;27.85;;;4.10;99.90;;;;;;5052663;28;20079;-86
2022/12/08 05:00:15;;;;;;;47.08;27.85;;;4.00;99.90;;;;;;5051479;28;20436;-86
2022/12/08 05:02:41;;;;;;;43.85;27.58;;;4.00;99.90;;;;;;5051597;28;20029;-86
2022/12/08 05:05:07;;;;;;;42.53;27.30;;;4.10;99.90;;;;;;5051466;28;20079;-86
2022/12/08 05:07:33;;;;;;;41.85;27.15;;;4.10;99.90;;;;;;5051836;28;20111;-86
2022/12/08 05:09:58;;;;;;;45.53;27.60;;;4.10;99.90;;;;;;5052710;28;20136;-86
2022/12/08 05:12:24;;;;;;;46.72;28.67;;;4.20;99.90;;;;;;5052276;28;20369;-85
2022/12/08 05:14:50;;;;;;;44.92;27.77;;;4.10;99.90;;;;;;5051419;28;20036;-86
2022/12/08 05:17:16;;;;;;;44.30;27.63;;;4.00;99.90;;;;;;5052959;28;20671;-86
2022/12/08 05:19:42;;;;;;;52.40;29.48;;;4.10;99.90;;;;;;5052364;28;20021;-86
2022/12/08 05:22:08;;;;;;;45.13;28.35;;;4.10;99.90;;;;;;5052337;28;20489;-85
2022/12/08 05:24:34;;;;;;;49.88;30.52;;;4.10;99.90;;;;;;5051361;28;20546;-86
2022/12/08 05:26:59;;;;;;;49.20;30.15;;;4.00;99.90;;;;;;5052313;28;20120;-85
2022/12/08 05:29:25;;;;;;;47.22;28.92;;;3.90;99.90;;;;;;5051308;28;20375;-85
2022/12/08 05:31:51;;;;;;;47.97;29.17;;;4.00;99.90;;;;;;5052259;28;20036;-86
2022/12/08 05:34:16;;;;;;;48.20;29.75;;;4.00;99.90;;;;;;5051853;28;20033;-84
2022/12/08 05:36:42;;;;;;;44.55;28.67;;;4.10;99.90;;;;;;5052561;28;20032;-85
2022/12/08 05:39:12;;;;;;;45.88;28.17;;;4.30;99.90;;;;;;5051525;28;20169;-84
2022/12/08 05:41:38;;;;;;;74.53;44.70;;;4.00;99.90;;;;;;5051175;28;20025;-85
2022/12/08 05:44:03;;;;;;;65.95;41.28;;;4.20;99.90;;;;;;5051978;28;20037;-85
2022/12/08 05:46:29;;;;;;;65.47;41.70;;;4.10;99.90;;;;;;5052448;28;20032;-84
2022/12/08 05:48:54;;;;;;;43.58;28.50;;;4.10;99.90;;;;;;5052139;28;20029;-84
2022/12/08 05:51:22;;;;;;;41.90;26.83;;;4.10;99.90;;;;;;5052013;28;20455;-85
2022/12/08 05:53:49;;;;;;;83.55;50.22;;;4.20;99.90;;;;;;5052218;28;20044;-85
2022/12/08 05:56:15;;;;;;;69.63;42.05;;;4.10;99.90;;;;;;5052442;28;20068;-85
2022/12/08 05:58:41;;;;;;;48.38;29.48;;;4.10;99.90;;;;;;5052236;28;20052;-85
2022/12/08 06:01:16;;;;;;;44.55;27.73;;;4.00;99.90;;;;;;5052006;28;20491;-85
2022/12/08 06:03:42;;;;;;;94.65;54.65;;;4.10;99.90;;;;;;5050980;28;20021;-85
2022/12/08 06:06:08;;;;;;;51.17;33.95;;;4.30;99.90;;;;;;5051841;28;20025;-84
2022/12/08 06:08:33;;;;;;;44.42;27.95;;;4.00;99.90;;;;;;5052504;28;20036;-84
2022/12/08 06:10:59;;;;;;;50.47;33.15;;;4.00;99.90;;;;;;5052087;28;20067;-85
2022/12/08 06:13:24;;;;;;;42.55;27.08;;;3.90;99.90;;;;;;5051817;28;20037;-85
2022/12/08 06:15:50;;;;;;;44.17;27.42;;;4.00;99.90;;;;;;5051835;28;20039;-85
2022/12/08 06:18:15;;;;;;;51.00;30.10;;;3.90;99.90;;;;;;5052060;28;20167;-85
2022/12/08 06:20:41;;;;;;;47.90;28.52;;;3.80;99.90;;;;;;5051664;28;20025;-84
2022/12/08 06:23:07;;;;;;;45.03;28.10;;;3.80;99.90;;;;;;5051805;28;20033;-85
2022/12/08 06:25:32;;;;;;;44.00;27.98;;;4.00;99.90;;;;;;5051697;28;20060;-85
2022/12/08 06:27:58;;;;;;;42.78;26.50;;;3.80;99.90;;;;;;5050384;28;20031;-85
2022/12/08 06:30:23;;;;;;;44.03;26.05;;;3.70;99.90;;;;;;5051560;28;20040;-85
2022/12/08 06:32:49;;;;;;;52.25;28.05;;;3.80;99.90;;;;;;5051362;28;20580;-85
2022/12/08 06:35:15;;;;;;;49.55;27.52;;;3.80;99.90;;;;;;5051392;28;20405;-84
2022/12/08 06:37:40;;;;;;;58.83;34.90;;;3.90;99.90;;;;;;5051447;28;20020;-85
2022/12/08 06:40:06;;;;;;;57.75;33.25;;;3.80;99.90;;;;;;5051749;28;20424;-85
2022/12/08 06:42:45;;;;;;;56.60;31.95;;;3.80;99.90;;;;;;5050165;28;20080;-84
2022/12/08 06:45:15;;;;;;;56.83;32.08;;;3.90;99.90;;;;;;5051045;28;20111;-84
2022/12/08 06:47:41;;;;;;;60.85;31.50;;;3.90;99.90;;;;;;5051693;28;20032;-85
2022/12/08 06:50:08;;;;;;;61.63;31.80;;;3.80;99.90;;;;;;5049726;28;20041;-85
2022/12/08 06:52:34;;;;;;;56.22;31.48;;;3.80;99.90;;;;;;5054182;28;20029;-84
2022/12/08 06:54:59;;;;;;;52.53;30.63;;;3.90;99.90;;;;;;5054974;28;20048;-85
2022/12/08 06:57:25;;;;;;;53.35;30.25;;;3.90;99.90;;;;;;5054870;28;20090;-85
2022/12/08 06:59:51;;;;;;;53.30;29.83;;;3.90;99.90;;;;;;5053485;28;20102;-85
2022/12/08 07:02:16;;;;;;;51.25;30.73;;;3.90;99.90;;;;;;5055244;28;20017;-84
2022/12/08 07:04:42;;;;;;;52.40;30.75;;;4.00;99.90;;;;;;5054486;28;20143;-85
2022/12/08 07:07:08;;;;;;;59.63;33.40;;;3.90;99.90;;;;;;5054639;28;20029;-85
2022/12/08 07:09:35;;;;;;;62.58;34.33;;;3.90;99.90;;;;;;5054597;28;20123;-85
2022/12/08 07:12:02;;;;;;;56.83;32.95;;;4.00;99.90;;;;;;5054717;28;20060;-85
2022/12/08 07:14:28;;;;;;;61.40;33.90;;;4.00;99.90;;;;;;5054574;28;20028;-85
2022/12/08 07:16:53;;;;;;;57.28;32.05;;;4.00;99.90;;;;;;5054479;28;20028;-85
2022/12/08 07:19:19;;;;;;;59.20;32.95;;;3.90;99.90;;;;;;5054518;28;20108;-84
2022/12/08 07:21:45;;;;;;;54.10;31.08;;;3.90;99.90;;;;;;5053093;28;20029;-85
2022/12/08 07:24:10;;;;;;;54.35;32.38;;;3.90;99.90;;;;;;5054271;28;20029;-84
2022/12/08 07:26:36;;;;;;;59.70;33.80;;;3.80;99.90;;;;;;5054520;28;20507;-85
2022/12/08 07:29:04;;;;;;;62.63;33.22;;;4.00;99.90;;;;;;5054491;28;20024;-84
2022/12/08 07:31:30;;;;;;;59.30;31.95;;;4.00;99.90;;;;;;5054369;28;20032;-84
2022/12/08 07:33:56;;;;;;;62.28;33.03;;;4.00;99.90;;;;;;5052427;28;20033;-84
2022/12/08 07:36:23;;;;;;;59.67;33.30;;;4.10;99.90;;;;;;5054032;28;20029;-85
2022/12/08 07:38:49;;;;;;;59.35;33.53;;;4.10;99.90;;;;;;5054358;28;20044;-84
2022/12/08 07:41:17;;;;;;;57.40;32.35;;;4.10;99.90;;;;;;5053151;28;20083;-84
2022/12/08 07:43:44;;;;;;;56.70;33.97;;;4.10;99.90;;;;;;5053917;28;20575;-85
2022/12/08 07:46:18;;;;;;;53.67;31.70;;;4.20;99.90;;;;;;5053725;28;20017;-85
2022/12/08 07:48:43;;;;;;;62.15;33.03;;;4.10;99.90;;;;;;5053903;28;20044;-84
2022/12/08 07:51:12;;;;;;;58.72;33.75;;;4.10;99.90;;;;;;5052548;28;20194;-85
2022/12/08 07:53:39;;;;;;;57.42;32.10;;;4.20;99.90;;;;;;5054090;28;20025;-84
2022/12/08 07:56:06;;;;;;;61.58;32.42;;;4.20;99.90;;;;;;5054117;28;20029;-85
2022/12/08 07:58:32;;;;;;;54.25;33.05;;;4.20;99.90;;;;;;5053808;28;20021;-85
2022/12/08 08:00:58;;;;;;;106.25;63.33;;;4.20;99.90;;;;;;5052966;28;20174;-83
2022/12/08 08:03:23;;;;;;;62.15;36.28;;;4.30;99.90;;;;;;5053819;28;20548;-84
2022/12/08 08:05:49;;;;;;;110.55;64.88;;;4.20;99.90;;;;;;5053567;28;20469;-84
2022/12/08 08:08:15;;;;;;;62.20;34.83;;;4.20;99.90;;;;;;5052296;28;20108;-85
2022/12/08 08:10:41;;;;;;;51.35;31.85;;;4.30;99.90;;;;;;5053842;28;20037;-85
2022/12/08 08:13:08;;;;;;;70.68;46.58;;;4.40;99.90;;;;;;5053282;28;20114;-84
2022/12/08 08:15:34;;;;;;;59.67;36.25;;;4.50;99.90;;;;;;5051829;28;20048;-85
2022/12/08 08:17:59;;;;;;;79.93;51.78;;;4.40;99.90;;;;;;5053082;28;20029;-83
2022/12/08 08:20:25;;;;;;;56.30;34.47;;;4.40;99.90;;;;;;5055407;28;20029;-83
2022/12/08 08:22:51;;;;;;;56.67;35.03;;;4.60;99.90;;;;;;5053779;28;20021;-81
2022/12/08 08:25:18;;;;;;;53.35;31.98;;;4.90;99.90;;;;;;5052614;28;20033;-82
2022/12/08 08:27:45;;;;;;;52.60;32.72;;;4.70;99.90;;;;;;5053473;28;20021;-82
2022/12/08 08:30:12;;;;;;;50.05;32.33;;;4.80;99.90;;;;;;5052765;28;20052;-84
2022/12/08 08:32:38;;;;;;;49.33;30.45;;;4.90;99.90;;;;;;5050861;28;20029;-84
2022/12/08 08:35:04;;;;;;;49.05;30.45;;;4.90;99.90;;;;;;5052311;28;20453;-84
2022/12/08 08:37:30;;;;;;;48.80;31.73;;;5.10;99.90;;;;;;5053078;28;20397;-85
2022/12/08 08:39:56;;;;;;;46.03;30.75;;;5.20;99.90;;;;;;5052525;28;20029;-85
2022/12/08 08:42:21;;;;;;;47.88;30.48;;;5.40;99.90;;;;;;5052207;28;20025;-85
2022/12/08 08:44:47;;;;;;;47.33;30.35;;;5.40;99.90;;;;;;5051648;28;20052;-83
2022/12/08 08:47:13;;;;;;;46.15;29.35;;;5.30;99.90;;;;;;5051359;28;20515;-84
2022/12/08 08:49:39;;;;;;;196.75;110.30;;;5.40;99.90;;;;;;5052344;28;20040;-84
2022/12/08 08:52:05;;;;;;;241.57;109.72;;;5.30;99.90;;;;;;5053239;28;20431;-85
2022/12/08 08:54:31;;;;;;;69.35;41.25;;;5.10;99.90;;;;;;5052156;28;20036;-82
2022/12/08 08:56:57;;;;;;;49.58;30.67;;;4.90;99.90;;;;;;5052137;28;20040;-82
2022/12/08 08:59:24;;;;;;;183.40;99.20;;;4.90;99.90;;;;;;5052565;28;20040;-83
2022/12/08 09:01:50;;;;;;;48.80;30.00;;;5.00;99.90;;;;;;5052645;28;20017;-82
2022/12/08 09:04:15;;;;;;;65.35;39.45;;;5.30;99.90;;;;;;5052393;28;20033;-82
2022/12/08 09:06:42;;;;;;;88.28;54.10;;;5.40;99.90;;;;;;5051270;28;20024;-83
2022/12/08 09:09:08;;;;;;;100.22;63.75;;;5.50;99.90;;;;;;5051031;28;20495;-83
2022/12/08 09:11:34;;;;;;;65.93;44.40;;;5.70;99.90;;;;;;5052617;28;20099;-82
2022/12/08 09:13:59;;;;;;;51.53;33.00;;;5.60;99.90;;;;;;5051502;28;20313;-83
2022/12/08 09:16:25;;;;;;;48.60;29.90;;;5.70;99.90;;;;;;5052516;28;20025;-82
2022/12/08 09:18:51;;;;;;;40.47;26.58;;;5.40;99.90;;;;;;5052516;28;20029;-82
2022/12/08 09:21:21;;;;;;;41.05;25.45;;;5.70;99.90;;;;;;5052452;28;20029;-82
2022/12/08 09:23:51;;;;;;;41.88;26.50;;;6.00;99.90;;;;;;5051957;28;20040;-82
2022/12/08 09:26:21;;;;;;;37.42;24.70;;;7.90;99.90;;;;;;5052091;28;20469;-83
2022/12/08 09:28:48;;;;;;;38.17;25.80;;;10.50;99.90;;;;;;5050526;28;20021;-82
2022/12/08 09:31:15;;;;;;;47.55;31.48;;;9.60;99.90;;;;;;5053162;28;20032;-83
2022/12/08 09:33:41;;;;;;;43.55;28.15;;;8.40;99.90;;;;;;5052278;28;20067;-82
2022/12/08 09:36:07;;;;;;;40.95;26.92;;;7.70;99.90;;;;;;5052081;28;20528;-82
2022/12/08 09:38:33;;;;;;;36.50;24.23;;;7.10;99.90;;;;;;5052017;28;20025;-82
2022/12/08 09:41:02;;;;;;;38.80;25.98;;;7.10;99.90;;;;;;5051924;28;20037;-82
2022/12/08 09:44:02;;;;;;;40.78;26.40;;;6.90;99.90;;;;;;5051725;28;20039;-82
2022/12/08 09:46:30;;;;;;;39.85;24.08;;;6.70;99.90;;;;;;5029636;28;20228;-81
2022/12/08 09:48:58;;;;;;;66.88;47.78;;;6.30;99.90;;;;;;5029755;28;20034;-82
2022/12/08 09:51:29;;;;;;;48.65;33.70;;;6.20;99.90;;;;;;5029861;28;20065;-82
2022/12/08 09:54:19;;;;;;;37.47;25.17;;;6.20;99.90;;;;;;5029802;28;20048;-82
2022/12/08 09:56:46;;;;;;;37.20;25.48;;;6.30;99.90;;;;;;5029489;28;20038;-82
2022/12/08 09:59:25;;;;;;;38.55;25.15;;;6.40;99.90;;;;;;5030141;28;20087;-82
2022/12/08 10:01:51;;;;;;;36.10;24.55;;;6.60;99.90;;;;;;5029736;28;20025;-82
2022/12/08 10:04:19;;;;;;;41.47;27.35;;;6.50;99.90;;;;;;5029592;28;20037;-82
2022/12/08 10:07:11;;;;;;;38.80;25.75;;;6.40;99.90;;;;;;5029799;28;20496;-82
2022/12/08 10:09:54;;;;;;;38.50;26.45;;;6.40;99.90;;;;;;5030047;28;20026;-82
2022/12/08 10:12:45;;;;;;;119.47;90.28;;;6.10;99.90;;;;;;5028982;28;20044;-82
2022/12/08 10:15:43;;;;;;;46.92;30.98;;;5.90;99.90;;;;;;5029516;28;20552;-82
2022/12/08 10:18:30;;;;;;;103.70;63.15;;;5.80;99.90;;;;;;5030554;28;20033;-82
2022/12/08 10:21:15;;;;;;;114.60;65.85;;;5.80;99.90;;;;;;5029684;28;20029;-82
2022/12/08 10:23:45;;;;;;;42.58;26.13;;;5.80;99.90;;;;;;5045201;28;20465;-82
2022/12/08 10:26:14;;;;;;;40.55;26.10;;;5.80;99.90;;;;;;5054381;28;20090;-82
2022/12/08 10:28:40;;;;;;;41.45;24.88;;;5.80;99.90;;;;;;5055459;28;20032;-82
2022/12/08 10:31:05;;;;;;;42.20;26.73;;;5.80;99.90;;;;;;5055246;28;20033;-82
2022/12/08 10:33:32;;;;;;;43.45;28.50;;;5.90;99.90;;;;;;5055512;28;20059;-82
2022/12/08 10:36:01;;;;;;;78.80;51.83;;;6.00;99.90;;;;;;5055375;28;20025;-82
2022/12/08 10:38:36;;;;;;;75.95;51.13;;;6.10;99.90;;;;;;5055153;28;20100;-82
2022/12/08 10:41:10;;;;;;;41.72;27.00;;;6.40;99.90;;;;;;5054937;28;20029;-82
2022/12/08 10:43:48;;;;;;;42.67;27.30;;;6.40;99.90;;;;;;5054983;28;20131;-82
2022/12/08 10:46:24;;;;;;;38.40;25.08;;;6.90;99.90;;;;;;5055086;28;20021;-82
2022/12/08 10:49:08;;;;;;;37.47;25.33;;;7.40;99.90;;;;;;5055434;28;20525;-82
2022/12/08 10:51:38;;;;;;;159.32;92.93;;;7.50;99.90;;;;;;5053383;28;20094;-82
2022/12/08 10:54:23;;;;;;;40.88;25.58;;;7.60;99.90;;;;;;5055532;28;20039;-83
2022/12/08 10:56:54;;;;;;;119.78;77.15;;;7.70;99.90;;;;;;5054481;28;20040;-82
2022/12/08 10:59:19;;;;;;;47.00;31.65;;;8.00;99.90;;;;;;5054494;28;20024;-82
2022/12/08 11:01:48;;;;;;;46.40;25.48;;;8.20;99.90;;;;;;5053587;28;20028;-81
2022/12/08 11:04:35;;;;;;;35.53;24.30;;;8.80;99.90;;;;;;5054693;28;20465;-82
2022/12/08 11:07:03;;;;;;;217.93;102.18;;;8.50;99.90;;;;;;5034884;28;20022;-82
2022/12/08 11:09:46;;;;;;;39.08;28.10;;;8.40;99.90;;;;;;5045884;28;20111;-83
2022/12/08 11:12:13;;;;;;;43.47;27.75;;;8.30;99.90;;;;;;5054129;28;20029;-85
2022/12/08 11:14:42;;;;;;;43.53;28.63;;;8.00;99.90;;;;;;5054658;28;20033;-83
2022/12/08 11:17:23;;;;;;;38.58;25.20;;;8.00;99.90;;;;;;5054199;28;20043;-81
2022/12/08 11:19:58;;;;;;;39.85;26.95;;;7.80;99.90;;;;;;5054110;28;20052;-82
2022/12/08 11:22:29;;;;;;;36.30;24.70;;;7.70;99.90;;;;;;5054239;28;20474;-83
2022/12/08 11:24:58;;;;;;;39.50;25.05;;;7.70;99.90;;;;;;5054094;28;20449;-82
2022/12/08 11:27:23;;;;;;;37.72;24.67;;;7.70;99.90;;;;;;5053602;28;20025;-81
2022/12/08 11:29:49;;;;;;;36.88;24.73;;;7.80;99.90;;;;;;5054219;28;20519;-81
2022/12/08 11:32:14;;;;;;;38.08;25.33;;;7.90;99.90;;;;;;5053847;28;20032;-82
2022/12/08 11:34:53;;;;;;;40.67;25.75;;;7.70;99.90;;;;;;5053808;28;20052;-81
2022/12/08 11:37:24;;;;;;;35.13;24.30;;;7.70;99.90;;;;;;5052663;28;20021;-82
2022/12/08 11:39:54;;;;;;;37.50;25.13;;;7.90;99.90;;;;;;5053335;28;20041;-81
2022/12/08 11:42:27;;;;;;;40.10;25.65;;;7.70;99.90;;;;;;5053795;28;20013;-82
2022/12/08 11:44:57;;;;;;;37.20;24.85;;;7.90;99.90;;;;;;5053196;28;20098;-81
2022/12/08 11:47:33;;;;;;;38.22;25.20;;;8.20;99.90;;;;;;5052641;28;20025;-81
2022/12/08 11:50:36;;;;;;;40.42;24.58;;;8.40;99.90;;;;;;5053518;28;20099;-82
2022/12/08 11:53:03;;;;;;;34.80;23.98;;;8.90;99.90;;;;;;5053562;28;20021;-83
2022/12/08 11:55:47;;;;;;;34.88;23.95;;;8.80;99.90;;;;;;5054392;28;20503;-81
2022/12/08 11:58:22;;;;;;;122.43;63.45;;;8.90;99.90;;;;;;5053799;28;20024;-82
2022/12/08 12:00:48;;;;;;;40.60;29.05;;;8.90;99.90;;;;;;5053712;28;20032;-82
2022/12/08 12:04:09;;;;;;;36.28;23.77;;;8.90;99.90;;;;;;5053829;28;20495;-83
2022/12/08 12:07:16;;;;;;;33.08;22.58;;;8.80;99.90;;;;;;5030506;28;20033;-82
2022/12/08 12:10:02;;;;;;;32.67;22.92;;;8.70;99.90;;;;;;5030815;28;20049;-89
2022/12/08 12:13:05;;;;;;;32.88;21.88;;;9.00;99.90;;;;;;5031199;28;20061;-83
2022/12/08 12:15:58;;;;;;;37.08;23.13;;;9.00;99.90;;;;;;5031134;28;20037;-83
2022/12/08 12:18:33;;;;;;;34.17;22.85;;;9.20;99.90;;;;;;5030880;28;20592;-83
2022/12/08 12:21:15;;;;;;;33.60;22.80;;;9.40;99.90;;;;;;5031944;28;20032;-82
2022/12/08 12:23:46;;;;;;;31.77;21.75;;;9.80;99.90;;;;;;5030534;28;20028;-83
2022/12/08 12:26:24;;;;;;;37.22;23.30;;;9.40;99.90;;;;;;5031203;28;20053;-83
2022/12/08 12:28:56;;;;;;;31.48;22.98;;;9.60;99.90;;;;;;5031107;28;20037;-83
2022/12/08 12:31:33;;;;;;;31.70;22.48;;;9.10;99.90;;;;;;5031070;28;20367;-83
2022/12/08 12:34:17;;;;;;;40.85;26.85;;;9.10;99.90;;;;;;5043890;28;20028;-83
2022/12/08 12:36:50;;;;;;;33.47;24.45;;;9.40;99.90;;;;;;5050883;28;20420;-84
2022/12/08 12:39:20;;;;;;;28.98;22.10;;;9.40;99.90;;;;;;5050704;28;20071;-83
2022/12/08 12:41:58;;;;;;;31.35;22.42;;;9.40;99.90;;;;;;5061016;28;20063;-83
2022/12/08 12:44:26;;;;;;;29.08;21.80;;;9.50;99.90;;;;;;5072588;28;20052;-84
2022/12/08 12:46:55;;;;;;;29.98;20.05;;;9.80;99.90;;;;;;5073301;28;20380;-83
2022/12/08 12:49:39;;;;;;;37.92;22.77;;;9.50;99.90;;;;;;5071988;28;20495;-83
2022/12/08 12:52:17;;;;;;;28.48;20.15;;;9.60;99.90;;;;;;5072348;28;20074;-83
2022/12/08 12:54:49;;;;;;;28.67;20.98;;;9.70;99.90;;;;;;5072595;28;20035;-83